Du har inga inställningar för hoppväder.nu

Hoppväder.nu

Senast uppdaterat 01:27

UTC-tid

2022-05-23 kl. 23:27


Sol och måne

Solen går upp 4:07 och går ner 22:47 (beräknade cirkatider)
Nästa fullmåne blir om 21 dagar (2022-06-14)

METAR

ESOE (Örebro)
(1447 minuter sedan)
ESOE 232320Z 15003KT CAVOK 11/02 Q1009=



ESOK (Karlstad)
(1447 minuter sedan)
ESOK 232320Z AUTO 12006KT 9999 BKN056/// 13/06 Q1007=



ESGR (Skövde)
ESGR NIL=



ESSD (Borlänge)
(1447 minuter sedan)
ESSD 232320Z AUTO 14005KT 120V180 9999 BKN061/// 11/03 Q1009=



ESOW (Västerås)
(1447 minuter sedan)
ESOW 232320Z AUTO VRB02KT 9999 NCD 07/01 Q1010=



TAF

ESOE (Örebro)
(177 minuter sedan)
ESOE 232030Z 2321/2401 13005KT CAVOK=



ESOK (Karlstad)
ESOK



ESGR (Skövde)
ESGR



ESSD (Borlänge)
ESSD



ESOW (Västerås)
ESOW





Kodnycklar till TAF och METAR






LHP

(Örebro är område se32g i Delområde 4)

Prognos är inte uppdaterad




Preliminär prognos

ÖVERSIKTLIG PROGNOS FÖR OMRÅDE se3 UTFÄRDAD 231339
GÄLLANDE DEN 24 MAJ 2022 MELLAN 04 OCH 16 UTC


Väderöversikt
En frontzon rör sig in söderifrån under dagen.


Delområde se32

Sikt/Väder/Moln
04-08UTC: Område se32c,se32b,se32j: Sikt 3km - >8km i dis. Molnbas >2000ft.

04-16UTC: Område se32d,se32a,se32h,se32g,se32f,se32e,se32i: Sikt >8km. Molnbas >2000ft.

08-12UTC: Område se32j: Sikt >8km. Molnbas >2000ft.

08-16UTC: Område se32c,se32b: Sikt >8km. Molnbas >2000ft.

12-16UTC: Område se32j: Sikt 5km - >8km i regnskurar, regn. Molnbas 1500ft - >2000ft.


CB/TCU Moln
04-12UTC: Område se32j: Väntas inte förekomma under perioden

04-16UTC: Område se32d,se32c,se32b,se32a,se32h,se32g,se32f,se32e,se32i: Väntas inte förekomma under perioden

12-16UTC: Område se32j: isol embd cb


Vind vid marken
04-08UTC: Område se32h: SO/4-14 knop, byar upp till 23 knop.
Område se32i: O-SO/4-16 knop, byar upp till 24 knop.
Område se32a: SO/1-11 knop, byar upp till 15 knop.
Område se32e: SO/3-9 knop, byar upp till 14 knop.
Område se32j: SO/4-16 knop, byar upp till 26 knop.
Område se32d: SO/2-13 knop, byar upp till 19 knop.
Område se32g: SO/3-9 knop, byar upp till 15 knop.
Område se32b: SO/3-12 knop, byar upp till 16 knop.
Område se32f: SO/1-7 knop, byar upp till 12 knop.
Område se32c: O-SO/3-14 knop, byar upp till 18 knop.

08-12UTC: Område se32h: SO/7-16 knop, byar upp till 26 knop.
Område se32f: SO/5-10 knop, byar upp till 20 knop.
Område se32c: SO/6-17 knop, byar upp till 25 knop.
Område se32d: SO/6-15 knop, byar upp till 23 knop.
Område se32j: SO/7-16 knop, byar upp till 30 knop.
Område se32b: O-SO/6-17 knop, byar upp till 25 knop.
Område se32a: SO/5-14 knop, byar upp till 20 knop.
Område se32g: SO/6-14 knop, byar upp till 25 knop.
Område se32e: SO/6-12 knop, byar upp till 21 knop.
Område se32i: SO/8-17 knop, byar upp till 27 knop.

12-16UTC: Område se32b: O-SO/8-18 knop, byar upp till 32 knop.
Område se32e: SO/7-16 knop, byar upp till 26 knop.
Område se32d: SO/8-19 knop, byar upp till 29 knop.
Område se32i: SO/9-21 knop, byar upp till 32 knop.
Område se32a: SO/6-17 knop, byar upp till 25 knop.
Område se32g: SO/8-18 knop, byar upp till 30 knop.
Område se32f: SO/7-14 knop, byar upp till 24 knop.
Område se32j: SO/9-18 knop, byar upp till 33 knop.
Område se32c: SO/9-19 knop, byar upp till 31 knop.
Område se32h: SO/9-20 knop, byar upp till 33 knop.




Spotting

Hur fungerar spotthjälpen och Vindkartan?

Markvind är ca 0 m/s.



Vindkartan

Senast uppdaterad 01:27




All data kommer från LFV.se